Time;durP1;ratioP1;P1;durP2;ratioP2;P2;SDS_P1;SDS_P2;PMS_P1;PMS_P2;Temp;Humidity;BMP_temperature;BMP_pressure;BME280_temperature;BME280_humidity;BME280_pressure;Samples;Min_cycle;Max_cycle;Signal;HPM_P1;HPM_P2
2021/01/24 00:01:43;;;;;;;255.63;107.43;;;;;;;;;;4944143;29;20246;-87
2021/01/24 00:04:08;;;;;;;266.60;113.07;;;;;;;;;;4945873;29;20214;-86
2021/01/24 00:06:34;;;;;;;271.67;112.53;;;;;;;;;;4943833;29;20207;-87
2021/01/24 00:08:59;;;;;;;254.80;110.00;;;;;;;;;;4945160;29;20202;-87
2021/01/24 00:11:24;;;;;;;237.50;101.30;;;;;;;;;;4944739;29;20349;-87
2021/01/24 00:13:50;;;;;;;229.20;100.87;;;;;;;;;;4938743;29;20290;-87
2021/01/24 00:16:15;;;;;;;237.97;103.37;;;;;;;;;;4935756;29;20266;-88
2021/01/24 00:18:40;;;;;;;221.37;96.43;;;;;;;;;;4935261;29;20188;-88
2021/01/24 00:21:07;;;;;;;191.13;89.73;;;;;;;;;;4918304;29;20184;-87
2021/01/24 00:23:32;;;;;;;193.30;88.87;;;;;;;;;;4918527;29;20198;-87
2021/01/24 00:25:57;;;;;;;196.27;89.17;;;;;;;;;;4918584;29;20184;-87
2021/01/24 00:28:25;;;;;;;172.63;79.93;;;;;;;;;;4935297;29;20286;-85
2021/01/24 00:30:50;;;;;;;144.20;70.77;;;;;;;;;;4936575;29;20176;-86
2021/01/24 00:33:15;;;;;;;127.07;61.67;;;;;;;;;;4956201;28;20665;-86
2021/01/24 00:35:41;;;;;;;73.43;40.50;;;;;;;;;;4957986;29;20634;-86
2021/01/24 00:38:06;;;;;;;45.07;28.40;;;;;;;;;;4939937;29;20189;-87
2021/01/24 00:40:31;;;;;;;51.00;28.33;;;;;;;;;;4940442;29;20199;-87
2021/01/24 00:42:57;;;;;;;42.87;26.30;;;;;;;;;;4958268;29;20325;-86
2021/01/24 00:45:22;;;;;;;58.97;35.97;;;;;;;;;;4958270;29;20639;-87
2021/01/24 00:47:48;;;;;;;68.53;42.90;;;;;;;;;;4958159;29;20194;-86
2021/01/24 00:50:14;;;;;;;46.83;32.23;;;;;;;;;;4958143;29;20525;-86
2021/01/24 00:52:40;;;;;;;36.17;25.90;;;;;;;;;;4957221;29;20560;-86
2021/01/24 00:55:07;;;;;;;36.40;25.93;;;;;;;;;;4939425;29;20183;-86
2021/01/24 00:57:32;;;;;;;29.70;20.93;;;;;;;;;;4939562;29;20179;-86
2021/01/24 00:59:57;;;;;;;30.70;20.90;;;;;;;;;;4956404;29;20319;-87
2021/01/24 01:02:23;;;;;;;29.57;20.40;;;;;;;;;;4956789;28;20238;-87
2021/01/24 01:04:48;;;;;;;31.70;21.23;;;;;;;;;;4957143;29;20270;-86
2021/01/24 01:07:13;;;;;;;33.90;22.33;;;;;;;;;;4940125;29;20537;-87
2021/01/24 01:09:39;;;;;;;32.87;21.53;;;;;;;;;;4940786;29;20643;-87
2021/01/24 01:12:04;;;;;;;28.00;19.93;;;;;;;;;;4939622;29;20214;-87
2021/01/24 01:14:30;;;;;;;31.33;20.83;;;;;;;;;;4958084;29;20179;-87
2021/01/24 01:16:55;;;;;;;29.67;20.20;;;;;;;;;;4957968;29;20534;-87
2021/01/24 01:19:20;;;;;;;29.43;20.63;;;;;;;;;;4958257;29;20175;-86
2021/01/24 01:21:46;;;;;;;32.07;20.30;;;;;;;;;;4957895;29;20168;-86
2021/01/24 01:24:11;;;;;;;33.07;20.73;;;;;;;;;;4940437;29;20175;-87
2021/01/24 01:26:36;;;;;;;30.93;20.33;;;;;;;;;;4940546;29;20182;-87
2021/01/24 01:29:02;;;;;;;34.33;22.17;;;;;;;;;;4957275;29;20179;-87
2021/01/24 01:31:27;;;;;;;33.13;21.57;;;;;;;;;;4957706;29;20647;-87
2021/01/24 01:33:52;;;;;;;39.70;23.27;;;;;;;;;;4957284;29;20206;-87
2021/01/24 01:36:19;;;;;;;36.63;21.87;;;;;;;;;;4957303;29;20265;-87
2021/01/24 01:38:44;;;;;;;27.53;19.67;;;;;;;;;;4957542;29;20191;-87
2021/01/24 01:41:10;;;;;;;31.40;20.57;;;;;;;;;;4956933;29;20180;-87
2021/01/24 01:43:35;;;;;;;25.57;17.20;;;;;;;;;;4956875;28;20590;-87
2021/01/24 01:46:01;;;;;;;27.53;19.13;;;;;;;;;;4956249;29;20248;-87
2021/01/24 01:48:26;;;;;;;69.43;42.07;;;;;;;;;;4957118;29;20203;-86
2021/01/24 01:50:52;;;;;;;53.93;37.37;;;;;;;;;;4940079;29;20265;-87
2021/01/24 01:53:17;;;;;;;95.30;34.87;;;;;;;;;;4957369;29;20548;-87
2021/01/24 01:55:42;;;;;;;95.30;34.43;;;;;;;;;;4939896;29;20187;-87
2021/01/24 01:58:08;;;;;;;40.27;20.70;;;;;;;;;;4957004;29;20179;-87
2021/01/24 02:00:33;;;;;;;39.07;20.63;;;;;;;;;;4957198;29;20167;-86
2021/01/24 02:03:26;;;;;;;23.70;16.30;;;;;;;;;;4957433;28;20686;-87
2021/01/24 02:05:55;;;;;;;20.43;14.37;;;;;;;;;;4939900;29;20307;-87
2021/01/24 02:08:32;;;;;;;19.10;14.30;;;;;;;;;;4957332;29;20182;-87
2021/01/24 02:11:21;;;;;;;35.77;25.77;;;;;;;;;;4956663;29;20190;-87
2021/01/24 02:14:06;;;;;;;49.20;36.93;;;;;;;;;;4956409;29;20242;-86
2021/01/24 02:16:33;;;;;;;19.83;15.63;;;;;;;;;;4956761;29;20742;-86
2021/01/24 02:18:58;;;;;;;24.50;16.93;;;;;;;;;;4956644;29;20680;-86
2021/01/24 02:21:35;;;;;;;26.87;20.00;;;;;;;;;;4956585;29;20187;-86
2021/01/24 02:24:01;;;;;;;17.60;13.97;;;;;;;;;;4939480;29;20536;-86
2021/01/24 02:26:33;;;;;;;32.87;22.53;;;;;;;;;;4956415;29;20167;-86
2021/01/24 02:28:59;;;;;;;18.03;13.10;;;;;;;;;;4956753;29;20231;-87
2021/01/24 02:31:26;;;;;;;17.97;12.67;;;;;;;;;;4939428;29;20187;-87
2021/01/24 02:33:52;;;;;;;30.67;24.33;;;;;;;;;;4939032;29;20211;-86
2021/01/24 02:36:18;;;;;;;27.40;22.27;;;;;;;;;;4956610;29;20175;-86
2021/01/24 02:38:44;;;;;;;16.13;13.40;;;;;;;;;;4955766;29;20194;-86
2021/01/24 02:41:10;;;;;;;15.83;11.83;;;;;;;;;;4957418;29;20520;-86
2021/01/24 02:43:36;;;;;;;24.40;16.23;;;;;;;;;;4956393;29;20669;-87
2021/01/24 02:46:03;;;;;;;36.37;24.20;;;;;;;;;;4956989;29;20172;-87
2021/01/24 02:48:28;;;;;;;19.77;13.70;;;;;;;;;;4956978;29;20206;-87
2021/01/24 02:50:54;;;;;;;19.03;14.37;;;;;;;;;;4957292;29;20179;-86
2021/01/24 02:53:19;;;;;;;17.43;13.57;;;;;;;;;;4957744;29;20322;-86
2021/01/24 02:55:45;;;;;;;20.30;14.67;;;;;;;;;;4956582;28;20175;-86
2021/01/24 02:58:10;;;;;;;17.83;12.23;;;;;;;;;;4957032;29;20179;-86
2021/01/24 03:00:35;;;;;;;16.53;12.83;;;;;;;;;;4956703;29;20291;-86
2021/01/24 03:03:01;;;;;;;17.37;12.77;;;;;;;;;;4956422;28;20231;-86
2021/01/24 03:05:26;;;;;;;21.30;16.70;;;;;;;;;;4956632;29;20171;-85
2021/01/24 03:07:52;;;;;;;23.90;20.13;;;;;;;;;;4956642;29;20202;-86
2021/01/24 03:10:18;;;;;;;20.43;15.20;;;;;;;;;;4957177;29;20175;-86
2021/01/24 03:13:02;;;;;;;20.93;17.53;;;;;;;;;;4956735;29;20566;-86
2021/01/24 03:15:28;;;;;;;21.70;18.03;;;;;;;;;;4956713;29;20178;-86
2021/01/24 03:17:55;;;;;;;17.57;14.13;;;;;;;;;;4956910;29;20173;-86
2021/01/24 03:20:21;;;;;;;19.13;13.60;;;;;;;;;;4956909;29;20179;-86
2021/01/24 03:22:47;;;;;;;17.23;12.50;;;;;;;;;;4956830;29;20176;-86
2021/01/24 03:25:12;;;;;;;15.80;12.63;;;;;;;;;;4956310;29;20173;-86
2021/01/24 03:27:38;;;;;;;21.80;14.97;;;;;;;;;;4956806;29;20171;-86
2021/01/24 03:30:04;;;;;;;21.00;13.40;;;;;;;;;;4956285;29;20649;-86
2021/01/24 03:32:29;;;;;;;19.43;13.83;;;;;;;;;;4956157;29;20214;-85
2021/01/24 03:34:55;;;;;;;19.40;14.67;;;;;;;;;;4956957;29;20585;-86
2021/01/24 03:37:20;;;;;;;18.13;14.03;;;;;;;;;;4956143;29;20595;-86
2021/01/24 03:39:45;;;;;;;19.33;14.13;;;;;;;;;;4956283;29;20263;-86
2021/01/24 03:42:11;;;;;;;17.00;13.20;;;;;;;;;;4956044;29;20732;-85
2021/01/24 03:44:36;;;;;;;19.30;14.40;;;;;;;;;;4956266;29;20222;-85
2021/01/24 03:47:01;;;;;;;29.80;23.07;;;;;;;;;;4956349;29;20257;-85
2021/01/24 03:49:27;;;;;;;28.83;22.90;;;;;;;;;;4956290;29;20176;-85
2021/01/24 03:51:52;;;;;;;25.97;21.43;;;;;;;;;;4956257;29;20203;-86
2021/01/24 03:54:17;;;;;;;22.33;17.30;;;;;;;;;;4956281;29;20174;-86
2021/01/24 03:56:42;;;;;;;24.13;18.23;;;;;;;;;;4956126;29;20183;-86
2021/01/24 03:59:08;;;;;;;22.83;18.27;;;;;;;;;;4955797;29;20176;-86
2021/01/24 04:01:33;;;;;;;24.63;18.33;;;;;;;;;;4955988;29;20273;-86
2021/01/24 04:03:59;;;;;;;30.43;19.27;;;;;;;;;;4956247;28;20570;-86
2021/01/24 04:06:24;;;;;;;23.80;17.33;;;;;;;;;;4956524;29;20637;-86
2021/01/24 04:08:50;;;;;;;28.27;19.27;;;;;;;;;;4955369;28;20167;-86
2021/01/24 04:11:15;;;;;;;32.23;19.50;;;;;;;;;;4955679;29;20178;-86
2021/01/24 04:13:41;;;;;;;26.43;17.10;;;;;;;;;;4955696;29;20246;-86
2021/01/24 04:16:06;;;;;;;23.83;17.17;;;;;;;;;;4956100;29;20194;-86
2021/01/24 04:18:31;;;;;;;22.43;16.77;;;;;;;;;;4955960;29;20174;-86
2021/01/24 04:20:57;;;;;;;21.23;15.60;;;;;;;;;;4956365;29;20508;-86
2021/01/24 04:23:22;;;;;;;22.87;15.77;;;;;;;;;;4955948;29;20510;-86
2021/01/24 04:25:47;;;;;;;24.57;16.03;;;;;;;;;;4956377;29;20517;-86
2021/01/24 04:28:13;;;;;;;23.60;15.23;;;;;;;;;;4955467;29;20622;-86
2021/01/24 04:30:38;;;;;;;20.40;14.97;;;;;;;;;;4938084;29;20230;-86
2021/01/24 04:33:05;;;;;;;19.30;14.67;;;;;;;;;;4955351;29;20234;-86
2021/01/24 04:35:30;;;;;;;18.97;14.50;;;;;;;;;;4955587;29;20242;-86
2021/01/24 04:37:55;;;;;;;23.57;16.27;;;;;;;;;;4938447;29;20634;-86
2021/01/24 04:40:21;;;;;;;24.57;16.60;;;;;;;;;;4938430;29;20220;-86
2021/01/24 04:42:46;;;;;;;27.43;17.17;;;;;;;;;;4955658;29;20186;-86
2021/01/24 04:45:12;;;;;;;25.77;17.87;;;;;;;;;;4955555;29;20234;-85
2021/01/24 04:47:38;;;;;;;26.37;18.60;;;;;;;;;;4955853;29;20214;-86
2021/01/24 04:50:04;;;;;;;25.50;17.63;;;;;;;;;;4955242;29;20179;-85
2021/01/24 04:52:29;;;;;;;25.00;16.67;;;;;;;;;;4955422;29;20198;-85
2021/01/24 04:54:55;;;;;;;23.77;15.83;;;;;;;;;;4955532;29;20256;-85
2021/01/24 04:57:21;;;;;;;20.83;15.80;;;;;;;;;;4955501;29;20262;-85
2021/01/24 04:59:46;;;;;;;18.90;14.03;;;;;;;;;;4955277;29;20194;-85
2021/01/24 05:02:12;;;;;;;21.80;15.83;;;;;;;;;;4955724;29;20262;-85
2021/01/24 05:04:38;;;;;;;23.97;15.70;;;;;;;;;;4955558;28;20222;-85
2021/01/24 05:07:03;;;;;;;18.73;14.37;;;;;;;;;;4955328;29;20626;-85
2021/01/24 05:09:29;;;;;;;17.93;14.10;;;;;;;;;;4955315;29;20206;-86
2021/01/24 05:11:54;;;;;;;22.00;15.47;;;;;;;;;;4955086;29;20685;-86
2021/01/24 05:14:20;;;;;;;22.13;15.43;;;;;;;;;;4955709;29;20191;-86
2021/01/24 05:16:49;;;;;;;21.87;15.30;;;;;;;;;;4955371;29;20622;-86
2021/01/24 05:19:15;;;;;;;20.60;14.63;;;;;;;;;;4956812;28;20175;-86
2021/01/24 05:21:40;;;;;;;19.83;14.73;;;;;;;;;;4959158;29;20167;-86
2021/01/24 05:24:10;;;;;;;21.13;14.90;;;;;;;;;;4959201;29;20258;-86
2021/01/24 05:26:36;;;;;;;20.10;15.40;;;;;;;;;;4958578;29;20195;-87
2021/01/24 05:29:01;;;;;;;22.80;17.23;;;;;;;;;;4958447;29;20192;-86
2021/01/24 05:31:26;;;;;;;34.80;25.07;;;;;;;;;;4958571;29;20515;-86
2021/01/24 05:33:55;;;;;;;33.97;26.23;;;;;;;;;;4958583;29;20195;-86
2021/01/24 05:36:20;;;;;;;36.53;30.17;;;;;;;;;;4958693;29;20172;-86
2021/01/24 05:38:46;;;;;;;24.57;19.87;;;;;;;;;;4941480;29;20179;-86
2021/01/24 05:41:11;;;;;;;21.07;17.20;;;;;;;;;;4959067;29;20610;-86
2021/01/24 05:43:38;;;;;;;22.93;16.13;;;;;;;;;;4958439;29;20578;-86
2021/01/24 05:46:04;;;;;;;22.00;16.07;;;;;;;;;;4958925;29;20260;-86
2021/01/24 05:48:30;;;;;;;35.93;26.80;;;;;;;;;;4958405;29;20218;-86
2021/01/24 05:50:55;;;;;;;39.83;32.50;;;;;;;;;;4958947;29;20167;-86
2021/01/24 05:53:22;;;;;;;31.17;24.87;;;;;;;;;;4958335;29;20227;-86
2021/01/24 05:55:47;;;;;;;24.63;19.30;;;;;;;;;;4941323;29;20201;-86
2021/01/24 05:58:23;;;;;;;26.00;17.77;;;;;;;;;;4957950;29;20685;-86
2021/01/24 06:00:49;;;;;;;22.90;17.87;;;;;;;;;;4941774;29;20171;-85
2021/01/24 06:03:15;;;;;;;24.73;17.20;;;;;;;;;;4940784;29;20247;-86
2021/01/24 06:05:41;;;;;;;23.57;17.00;;;;;;;;;;4957985;29;20266;-85
2021/01/24 06:08:07;;;;;;;22.77;16.87;;;;;;;;;;4958321;29;20214;-87
2021/01/24 06:10:33;;;;;;;24.20;17.40;;;;;;;;;;4958325;29;20171;-86
2021/01/24 06:12:59;;;;;;;23.87;18.17;;;;;;;;;;4957618;29;20692;-87
2021/01/24 06:15:27;;;;;;;26.57;19.53;;;;;;;;;;4958151;29;20171;-86
2021/01/24 06:17:54;;;;;;;25.30;18.37;;;;;;;;;;4957518;29;20186;-86
2021/01/24 06:20:21;;;;;;;28.17;20.10;;;;;;;;;;4940610;29;20179;-85
2021/01/24 06:22:54;;;;;;;26.87;19.83;;;;;;;;;;4958233;29;20180;-86
2021/01/24 06:25:28;;;;;;;23.53;18.27;;;;;;;;;;4957778;29;20168;-86
2021/01/24 06:27:54;;;;;;;22.37;16.93;;;;;;;;;;4957777;29;20186;-86
2021/01/24 06:30:22;;;;;;;23.60;17.97;;;;;;;;;;4957190;28;20693;-86
2021/01/24 06:32:47;;;;;;;23.33;17.70;;;;;;;;;;4957726;29;20262;-86
2021/01/24 06:35:13;;;;;;;24.50;18.70;;;;;;;;;;4958260;29;20183;-86
2021/01/24 06:37:45;;;;;;;24.63;17.90;;;;;;;;;;4958412;29;20175;-86
2021/01/24 06:40:19;;;;;;;25.97;18.50;;;;;;;;;;4957675;29;20195;-86
2021/01/24 06:42:44;;;;;;;26.60;19.10;;;;;;;;;;4957588;29;20198;-86
2021/01/24 06:45:22;;;;;;;26.67;18.73;;;;;;;;;;4940312;29;20179;-85
2021/01/24 06:47:48;;;;;;;28.63;19.77;;;;;;;;;;4959208;29;20194;-85
2021/01/24 06:50:33;;;;;;;28.10;20.23;;;;;;;;;;4958029;29;20190;-85
2021/01/24 06:53:03;;;;;;;25.53;19.03;;;;;;;;;;4957473;29;20219;-85
2021/01/24 06:55:28;;;;;;;24.57;19.13;;;;;;;;;;4957601;29;20176;-86
2021/01/24 06:57:54;;;;;;;29.97;20.60;;;;;;;;;;4956932;29;20609;-86
2021/01/24 07:00:22;;;;;;;28.70;19.87;;;;;;;;;;4957375;29;20674;-85
2021/01/24 07:02:48;;;;;;;33.77;21.50;;;;;;;;;;4956774;28;20318;-86
2021/01/24 07:05:16;;;;;;;34.67;23.03;;;;;;;;;;4957218;29;20685;-86
2021/01/24 07:07:43;;;;;;;38.47;22.47;;;;;;;;;;4957400;29;20178;-86
2021/01/24 07:10:09;;;;;;;45.73;24.67;;;;;;;;;;4957526;29;20575;-86
2021/01/24 07:12:41;;;;;;;55.53;28.57;;;;;;;;;;4956896;29;20230;-86
2021/01/24 07:15:08;;;;;;;45.37;27.50;;;;;;;;;;4957739;29;20208;-86
2021/01/24 07:17:35;;;;;;;47.40;31.23;;;;;;;;;;4977731;28;20191;-86
2021/01/24 07:20:00;;;;;;;35.13;23.53;;;;;;;;;;4981064;28;20159;-86
2021/01/24 07:22:26;;;;;;;35.60;24.30;;;;;;;;;;4977076;28;20183;-85
2021/01/24 07:24:54;;;;;;;38.90;25.97;;;;;;;;;;4969250;29;20181;-86
2021/01/24 07:27:21;;;;;;;44.50;28.57;;;;;;;;;;4966097;29;20187;-86
2021/01/24 07:29:46;;;;;;;46.73;29.23;;;;;;;;;;4959230;29;20501;-86
2021/01/24 07:32:15;;;;;;;43.37;27.37;;;;;;;;;;4956481;29;20302;-86
2021/01/24 07:34:42;;;;;;;52.23;30.07;;;;;;;;;;4956880;29;20641;-85
2021/01/24 07:37:07;;;;;;;50.80;32.53;;;;;;;;;;4956421;29;20217;-85
2021/01/24 07:39:33;;;;;;;46.73;30.47;;;;;;;;;;4939252;29;20204;-85
2021/01/24 07:41:59;;;;;;;52.37;31.50;;;;;;;;;;4955697;28;20176;-84
2021/01/24 07:44:24;;;;;;;47.67;29.00;;;;;;;;;;4956154;29;20175;-85
2021/01/24 07:46:50;;;;;;;55.77;39.13;;;;;;;;;;4956200;29;20178;-85
2021/01/24 07:49:15;;;;;;;42.97;28.37;;;;;;;;;;4956787;29;20195;-85
2021/01/24 07:51:42;;;;;;;39.63;27.17;;;;;;;;;;4956525;29;20498;-86
2021/01/24 07:54:07;;;;;;;43.07;26.70;;;;;;;;;;4956100;29;20211;-86
2021/01/24 07:56:33;;;;;;;31.83;21.63;;;;;;;;;;4937760;29;20195;-85
2021/01/24 07:58:58;;;;;;;35.10;22.07;;;;;;;;;;4956364;29;20171;-86
2021/01/24 08:01:24;;;;;;;37.97;23.40;;;;;;;;;;4955901;29;20234;-87
2021/01/24 08:03:49;;;;;;;37.43;24.43;;;;;;;;;;4956017;28;20191;-87
2021/01/24 08:06:15;;;;;;;42.50;26.53;;;;;;;;;;4955783;29;20644;-87
2021/01/24 08:08:41;;;;;;;38.67;25.40;;;;;;;;;;4955709;29;20167;-86
2021/01/24 08:11:07;;;;;;;41.83;26.30;;;;;;;;;;4955947;29;20179;-86
2021/01/24 08:13:33;;;;;;;46.03;27.43;;;;;;;;;;4956059;29;20222;-86
2021/01/24 08:15:59;;;;;;;41.23;28.40;;;;;;;;;;4955938;29;20233;-86
2021/01/24 08:18:26;;;;;;;38.20;25.13;;;;;;;;;;4955850;29;20508;-86
2021/01/24 08:20:51;;;;;;;36.67;24.80;;;;;;;;;;4955952;29;20179;-86
2021/01/24 08:23:17;;;;;;;40.57;27.33;;;;;;;;;;4955452;29;20179;-85
2021/01/24 08:25:43;;;;;;;40.37;27.90;;;;;;;;;;4956439;29;20180;-85
2021/01/24 08:28:08;;;;;;;38.30;26.67;;;;;;;;;;4955844;29;20262;-85
2021/01/24 08:30:40;;;;;;;40.67;28.30;;;;;;;;;;4955717;29;20175;-85
2021/01/24 08:33:10;;;;;;;44.43;31.60;;;;;;;;;;4955655;29;20207;-85
2021/01/24 08:35:35;;;;;;;45.67;33.00;;;;;;;;;;4955717;29;20173;-86
2021/01/24 08:38:01;;;;;;;46.90;32.60;;;;;;;;;;4956038;29;20517;-85
2021/01/24 08:40:30;;;;;;;53.23;38.83;;;;;;;;;;4956174;29;20171;-85
2021/01/24 08:42:55;;;;;;;50.70;33.97;;;;;;;;;;4955666;29;20217;-84
2021/01/24 08:45:23;;;;;;;39.60;25.23;;;;;;;;;;4955969;29;20203;-85
2021/01/24 08:47:55;;;;;;;50.40;30.70;;;;;;;;;;4955698;29;20211;-85
2021/01/24 08:50:21;;;;;;;51.50;31.93;;;;;;;;;;4955833;29;20175;-86
2021/01/24 08:52:56;;;;;;;47.37;32.50;;;;;;;;;;4955506;29;20207;-86
2021/01/24 08:55:21;;;;;;;43.77;27.97;;;;;;;;;;4959039;29;20610;-86
2021/01/24 08:57:47;;;;;;;42.77;27.07;;;;;;;;;;4958982;29;20230;-87
2021/01/24 09:00:13;;;;;;;40.33;28.23;;;;;;;;;;4959558;29;20198;-87
2021/01/24 09:02:39;;;;;;;44.03;26.87;;;;;;;;;;4959127;28;20230;-86
2021/01/24 09:05:06;;;;;;;57.17;38.57;;;;;;;;;;4957654;29;20527;-85
2021/01/24 09:07:38;;;;;;;76.83;50.93;;;;;;;;;;4957700;29;20183;-85
2021/01/24 09:10:24;;;;;;;67.63;46.77;;;;;;;;;;4940074;29;20541;-85
2021/01/24 09:13:00;;;;;;;66.03;43.00;;;;;;;;;;4956628;29;20258;-85
2021/01/24 09:15:25;;;;;;;104.70;67.57;;;;;;;;;;4957223;29;20186;-85
2021/01/24 09:17:51;;;;;;;85.27;50.00;;;;;;;;;;4957114;29;20180;-85
2021/01/24 09:20:17;;;;;;;61.30;40.80;;;;;;;;;;4957452;29;20530;-85
2021/01/24 09:22:43;;;;;;;81.77;55.03;;;;;;;;;;4957261;29;20278;-86
2021/01/24 09:25:08;;;;;;;80.10;48.73;;;;;;;;;;4940977;29;20189;-88
2021/01/24 09:27:34;;;;;;;121.80;78.20;;;;;;;;;;4958327;29;20179;-87
2021/01/24 09:29:59;;;;;;;149.33;88.03;;;;;;;;;;4959178;29;20261;-86
2021/01/24 09:32:25;;;;;;;94.77;48.77;;;;;;;;;;4958659;29;20650;-86
2021/01/24 09:34:50;;;;;;;108.97;55.40;;;;;;;;;;4958941;29;20163;-87
2021/01/24 09:37:16;;;;;;;183.20;71.07;;;;;;;;;;4958620;29;20175;-87
2021/01/24 09:39:41;;;;;;;336.50;121.33;;;;;;;;;;4958324;29;20496;-85
2021/01/24 09:42:06;;;;;;;153.27;64.60;;;;;;;;;;4963555;29;20171;-86
2021/01/24 09:44:32;;;;;;;95.03;42.90;;;;;;;;;;4982699;28;20156;-85
2021/01/24 09:46:58;;;;;;;46.47;28.13;;;;;;;;;;4982552;28;20166;-83
2021/01/24 09:49:23;;;;;;;151.00;58.43;;;;;;;;;;4967085;29;20182;-85
2021/01/24 09:51:48;;;;;;;169.70;69.43;;;;;;;;;;4967087;29;20183;-86
2021/01/24 09:54:15;;;;;;;164.90;70.53;;;;;;;;;;4962705;29;20203;-86
2021/01/24 09:56:41;;;;;;;178.30;75.03;;;;;;;;;;4958286;29;20279;-86
2021/01/24 09:59:07;;;;;;;430.17;158.57;;;;;;;;;;4952802;29;20188;-86
2021/01/24 10:01:32;;;;;;;530.50;197.73;;;;;;;;;;4946378;29;20231;-87
2021/01/24 10:03:57;;;;;;;259.87;97.40;;;;;;;;;;4941298;29;20210;-87
2021/01/24 10:06:22;;;;;;;281.37;111.30;;;;;;;;;;4943055;29;20182;-88
2021/01/24 10:08:48;;;;;;;199.30;92.83;;;;;;;;;;4946556;29;20180;-89
2021/01/24 10:11:13;;;;;;;88.00;49.00;;;;;;;;;;4945572;29;20218;-86
2021/01/24 10:13:39;;;;;;;89.50;50.67;;;;;;;;;;4920171;29;20266;-86
2021/01/24 10:16:05;;;;;;;52.77;31.63;;;;;;;;;;4937331;29;20176;-85
2021/01/24 10:18:30;;;;;;;54.13;33.43;;;;;;;;;;4938224;29;20172;-85
2021/01/24 10:20:55;;;;;;;92.37;49.70;;;;;;;;;;4939066;29;20610;-86
2021/01/24 10:23:24;;;;;;;104.13;55.33;;;;;;;;;;4938650;29;20510;-86
2021/01/24 10:25:50;;;;;;;77.17;41.93;;;;;;;;;;4921097;29;20175;-86
2021/01/24 10:28:15;;;;;;;93.93;56.40;;;;;;;;;;4920819;29;20551;-85
2021/01/24 10:30:41;;;;;;;82.53;48.30;;;;;;;;;;4924018;29;20187;-85
2021/01/24 10:33:06;;;;;;;62.47;39.43;;;;;;;;;;4955201;29;20207;-85
2021/01/24 10:35:31;;;;;;;115.20;73.77;;;;;;;;;;4938615;29;20190;-85
2021/01/24 10:37:57;;;;;;;97.40;60.43;;;;;;;;;;4956781;28;20171;-86
2021/01/24 10:40:22;;;;;;;74.40;46.63;;;;;;;;;;4955889;29;20179;-86
2021/01/24 10:42:47;;;;;;;49.40;30.10;;;;;;;;;;4955581;29;20179;-87
2021/01/24 10:45:13;;;;;;;49.23;32.43;;;;;;;;;;4955673;29;20175;-86
2021/01/24 10:47:38;;;;;;;56.53;34.37;;;;;;;;;;4939554;29;20191;-85
2021/01/24 10:50:05;;;;;;;77.53;45.30;;;;;;;;;;4954116;28;20179;-86
2021/01/24 10:52:30;;;;;;;67.57;41.60;;;;;;;;;;4938912;29;20211;-86
2021/01/24 10:54:56;;;;;;;84.93;52.47;;;;;;;;;;4957094;29;20722;-87
2021/01/24 10:57:21;;;;;;;61.53;38.17;;;;;;;;;;4939669;29;20533;-87
2021/01/24 10:59:46;;;;;;;91.27;55.93;;;;;;;;;;4939962;29;20272;-86
2021/01/24 11:02:12;;;;;;;134.30;79.23;;;;;;;;;;4956595;29;20238;-87
2021/01/24 11:04:37;;;;;;;119.27;68.90;;;;;;;;;;4956895;28;20195;-87
2021/01/24 11:07:03;;;;;;;126.13;73.07;;;;;;;;;;4955830;29;20274;-86
2021/01/24 11:09:32;;;;;;;94.20;50.80;;;;;;;;;;4955957;29;20178;-87
2021/01/24 11:11:59;;;;;;;79.67;46.73;;;;;;;;;;4955919;29;20175;-86
2021/01/24 11:14:25;;;;;;;80.67;44.27;;;;;;;;;;4954420;29;20203;-85
2021/01/24 11:16:51;;;;;;;75.53;42.97;;;;;;;;;;4970458;28;20212;-85
2021/01/24 11:19:16;;;;;;;71.47;41.40;;;;;;;;;;4975024;28;20187;-86
2021/01/24 11:21:41;;;;;;;98.20;54.57;;;;;;;;;;4975333;28;20186;-85
2021/01/24 11:24:07;;;;;;;159.80;88.30;;;;;;;;;;4974748;28;20261;-86
2021/01/24 11:26:32;;;;;;;124.57;68.57;;;;;;;;;;4975036;28;20178;-86
2021/01/24 11:28:58;;;;;;;180.87;79.40;;;;;;;;;;4975024;28;20198;-86
2021/01/24 11:31:23;;;;;;;169.33;75.43;;;;;;;;;;4954121;28;20179;-86
2021/01/24 11:33:49;;;;;;;190.03;80.37;;;;;;;;;;4955713;29;20210;-86
2021/01/24 11:36:14;;;;;;;151.23;72.03;;;;;;;;;;4955581;29;20171;-86
2021/01/24 11:38:41;;;;;;;133.97;64.27;;;;;;;;;;4937911;29;20195;-86
2021/01/24 11:41:07;;;;;;;125.77;63.00;;;;;;;;;;4954550;29;20650;-86
2021/01/24 11:43:32;;;;;;;110.47;59.67;;;;;;;;;;4955394;29;20201;-86
2021/01/24 11:45:58;;;;;;;101.80;53.17;;;;;;;;;;4937564;29;20766;-86
2021/01/24 11:48:23;;;;;;;90.30;48.77;;;;;;;;;;4954336;29;20180;-85
2021/01/24 11:50:49;;;;;;;91.83;50.53;;;;;;;;;;4954391;29;20356;-86
2021/01/24 11:53:16;;;;;;;113.27;57.73;;;;;;;;;;4953795;29;20207;-85
2021/01/24 11:55:41;;;;;;;108.93;54.37;;;;;;;;;;4936538;29;20187;-85
2021/01/24 11:58:08;;;;;;;87.77;49.93;;;;;;;;;;4934483;29;20498;-85
2021/01/24 12:00:35;;;;;;;86.57;49.33;;;;;;;;;;4953375;29;20182;-85
2021/01/24 12:03:00;;;;;;;94.23;51.10;;;;;;;;;;4954349;28;20720;-87
2021/01/24 12:05:25;;;;;;;100.23;53.00;;;;;;;;;;4955069;29;20266;-86
2021/01/24 12:07:54;;;;;;;105.10;56.17;;;;;;;;;;4937758;29;20183;-86
2021/01/24 12:10:19;;;;;;;115.57;60.63;;;;;;;;;;4954798;29;20167;-87
2021/01/24 12:12:44;;;;;;;131.97;67.63;;;;;;;;;;4977798;28;20187;-85
2021/01/24 12:15:10;;;;;;;123.20;63.57;;;;;;;;;;4978993;28;20163;-86
2021/01/24 12:17:35;;;;;;;108.93;56.07;;;;;;;;;;4977881;28;20171;-85
2021/01/24 12:20:01;;;;;;;97.10;52.20;;;;;;;;;;4970022;29;20171;-86
2021/01/24 12:22:26;;;;;;;90.97;48.90;;;;;;;;;;4951378;29;20179;-86
2021/01/24 12:24:51;;;;;;;93.50;48.20;;;;;;;;;;4944601;29;20187;-86
2021/01/24 12:27:17;;;;;;;93.37;48.50;;;;;;;;;;4953409;29;20546;-86
2021/01/24 12:29:42;;;;;;;96.93;49.80;;;;;;;;;;4954012;29;20709;-86
2021/01/24 12:32:07;;;;;;;88.13;47.43;;;;;;;;;;4955079;29;20183;-86
2021/01/24 12:34:33;;;;;;;88.37;46.00;;;;;;;;;;4946399;29;20270;-86
2021/01/24 12:36:59;;;;;;;93.77;48.87;;;;;;;;;;4945889;29;20609;-87
2021/01/24 12:39:24;;;;;;;103.37;51.87;;;;;;;;;;4954200;29;20179;-85
2021/01/24 12:41:49;;;;;;;103.07;52.63;;;;;;;;;;4955260;29;20183;-86
2021/01/24 12:44:15;;;;;;;106.97;52.27;;;;;;;;;;4954692;29;20179;-85
2021/01/24 12:46:40;;;;;;;98.77;51.20;;;;;;;;;;4954663;29;20217;-86
2021/01/24 12:49:06;;;;;;;106.97;53.03;;;;;;;;;;4937153;29;20187;-87
2021/01/24 12:51:32;;;;;;;90.83;49.17;;;;;;;;;;4953647;29;20195;-86
2021/01/24 12:53:57;;;;;;;89.23;45.67;;;;;;;;;;4954191;29;20215;-86
2021/01/24 12:56:22;;;;;;;84.03;42.90;;;;;;;;;;4954391;29;20179;-87
2021/01/24 12:58:51;;;;;;;81.13;42.70;;;;;;;;;;4954542;29;20182;-86
2021/01/24 13:01:16;;;;;;;82.87;40.23;;;;;;;;;;4954234;29;20281;-85
2021/01/24 13:24:13;;;;;;;60.20;37.17;;;;;;;;;;5090219;27;20626;-87
2021/01/24 13:26:39;;;;;;;68.00;39.37;;;;;;;;;;5071410;28;20194;-87
2021/01/24 13:29:04;;;;;;;56.87;34.23;;;;;;;;;;5090115;28;20257;-86
2021/01/24 13:31:29;;;;;;;57.73;34.90;;;;;;;;;;5089978;28;20198;-87
2021/01/24 13:33:55;;;;;;;62.53;35.30;;;;;;;;;;5090052;28;20201;-87
2021/01/24 13:36:20;;;;;;;55.73;32.30;;;;;;;;;;5089664;28;20257;-86
2021/01/24 13:38:45;;;;;;;56.60;32.87;;;;;;;;;;5089960;28;20191;-87
2021/01/24 13:41:12;;;;;;;53.67;31.40;;;;;;;;;;5089213;28;20198;-87
2021/01/24 13:43:37;;;;;;;55.47;32.70;;;;;;;;;;5089820;28;20163;-87
2021/01/24 13:46:03;;;;;;;54.73;31.10;;;;;;;;;;5089973;28;20487;-86
2021/01/24 13:48:29;;;;;;;52.27;31.50;;;;;;;;;;5089480;28;20178;-87
2021/01/24 13:50:56;;;;;;;60.10;33.83;;;;;;;;;;5089727;28;20202;-87
2021/01/24 13:53:23;;;;;;;48.23;30.47;;;;;;;;;;5089483;28;20163;-87
2021/01/24 13:55:48;;;;;;;45.13;27.90;;;;;;;;;;5089664;28;20194;-87
2021/01/24 13:58:14;;;;;;;45.23;27.60;;;;;;;;;;5089242;28;20653;-88
2021/01/24 14:00:39;;;;;;;45.73;28.07;;;;;;;;;;5089000;28;20178;-88
2021/01/24 14:03:05;;;;;;;31.80;20.87;;;;;;;;;;5089295;28;20167;-87
2021/01/24 14:05:30;;;;;;;43.37;23.03;;;;;;;;;;5087488;28;20171;-87
2021/01/24 14:07:57;;;;;;;36.57;22.17;;;;;;;;;;5080232;28;20280;-87
2021/01/24 14:10:22;;;;;;;29.67;19.13;;;;;;;;;;5049240;28;20172;-87
2021/01/24 14:12:47;;;;;;;31.10;18.63;;;;;;;;;;5048868;28;20171;-86
2021/01/24 14:15:13;;;;;;;43.47;22.30;;;;;;;;;;5031416;28;20219;-87
2021/01/24 14:17:39;;;;;;;52.73;26.93;;;;;;;;;;5048808;28;20198;-86
2021/01/24 14:20:07;;;;;;;50.23;25.60;;;;;;;;;;5043585;28;20206;-87
2021/01/24 14:22:33;;;;;;;40.50;23.63;;;;;;;;;;5055350;28;20315;-88
2021/01/24 14:24:58;;;;;;;42.60;23.80;;;;;;;;;;5055471;28;20255;-87
2021/01/24 14:27:23;;;;;;;24.07;16.20;;;;;;;;;;5040815;28;20271;-87
2021/01/24 14:29:50;;;;;;;40.43;23.97;;;;;;;;;;5032913;28;20211;-87